Saint Bernard, LA (70085)

1:27 AM CDT on May 28, 2015 (GMT -0500)
HOV/BCO/BCEL | | Change Station
CLOSE
Current Station
Personal Weather Station
Location: Belle Chasse, LA
Elevation: 36 ft
Nearby Weather Stations

Elev 36 ft 29.89 °N, 89.98 °W | Updated 29 seconds ago

Partly Cloudy
Partly Cloudy
71.6 °F
Feels Like 71.6 °F
N
0.0
Wind Variable Wind from NE
Gusts 0.0 mph

Today
High -- | Low -- °F
--% Chance of Precip.
Yesterday
High -- | Low -- °F
Precip. -- in
6:00 AM 7:53 PM
Waxing Gibbous, 73% visible
Pressure 30.10 in
Visibility 10.0 miles
Clouds Clear
Dew Point 70 °F
Humidity 95%
Rainfall 0.00 in
Snow Depth Not available.
UV 0 out of 12
Pollen 3.90 out of 12
Air Quality Not available.
Flu Activity Sporadic
METAR KNBG 280555Z AUTO 00000KT 10SM CLR 21/20 A3010 RMK AO2 SLP191 T02110200 10256 20211 402890200 53003 $

More Conditions Fewer Conditions

Pressure 30.10 in
Visibility 10.0 miles
Clouds Clear
Dew Point 70 °F
Humidity 95%
Rainfall 0.00 in
Snow Depth Not available.
UV 0 out of 12
Pollen 3.90 out of 12
Air Quality Not available.
Flu Activity Sporadic
METAR KNBG 280555Z AUTO 00000KT 10SM CLR 21/20 A3010 RMK AO2 SLP191 T02110200 10256 20211 402890200 53003 $

More Conditions Fewer Conditions

10-Day Weather Forecast

Almanac

Astronomy

May. 28, 2015 Rise Set
Actual Time
Civil Twilight
Nautical Twilight
Astronomical Twilight
Moon
Length of Visible Light
Length of Day
Tomorrow will be .
, % of the Moon is Illuminated

Today's Extremes

State Highs State Lows

Community

WunderPhotos

Upload Photos

1,824,931 photos uploaded!

WunderBlogs® & News

Nearby

Air Quality

  Air Quality AQ Index Pollutant
Not available.

Snow Depth

Station Depth Elevation

Earthquake Activity

City Distance Mag. Time & Date
Minimum magnitude displayed is 2.5.

Coastal Water Temperatures

Place Temperature

Stations

Nearby Weather Stations

Station Location Temp. Windchill Dew Point Humidity Wind Precip. Elev Updated Type